Terminal Aerodrome Forecast
Issued by NWS

Home | Current Version | Previous Version | Text Only | Print | Product List | Glossary On
Versions: 1 2 3 4 5 6 7 8 9 10 11 12 13 14 15 16 17 18 19 20 21 22 23 24 25 26 27 28 29 30 31 32 33 34 35 36 37
000
FTPA31 PHFO 221134
TAFMDY
TAF
PMDY 221134Z 2212/2312 15015KT P6SM FEW025 SCT050 OVC250
     FM221800 17019KT P6SM VCSH SCT025 BKN050 OVC250
     FM222100 18019KT 3SM -SHRA BR VCTS SCT015CB BKN025 OVC040
     FM230000 19017KT 3SM -SHRA BR SCT015 BKN025
     FM230300 22010G18KT 3SM -SHRA BR SCT015 BKN025 OVC040
     FM230700 01010G18KT P6SM VCSH SCT010 BKN020=

USA.gov is the U.S. government's official web portal to all federal, state and local government web resources and services.